sensor_id;sensor_type;location;lat;lon;timestamp;temperature;humidity
26541;DHT22;14206;50.202;10.948;2024-02-28T00:00:12;6.70;96.40
26541;DHT22;14206;50.202;10.948;2024-02-28T00:02:39;6.70;96.30
26541;DHT22;14206;50.202;10.948;2024-02-28T00:05:06;6.70;96.50
26541;DHT22;14206;50.202;10.948;2024-02-28T00:07:33;6.70;96.50
26541;DHT22;14206;50.202;10.948;2024-02-28T00:10:01;6.70;96.20
26541;DHT22;14206;50.202;10.948;2024-02-28T00:12:28;6.70;96.20
26541;DHT22;14206;50.202;10.948;2024-02-28T00:14:55;6.60;96.20
26541;DHT22;14206;50.202;10.948;2024-02-28T00:17:22;6.60;96.60
26541;DHT22;14206;50.202;10.948;2024-02-28T00:19:49;6.60;96.60
26541;DHT22;14206;50.202;10.948;2024-02-28T00:22:16;6.50;96.60
26541;DHT22;14206;50.202;10.948;2024-02-28T00:24:42;6.50;96.60
26541;DHT22;14206;50.202;10.948;2024-02-28T00:27:09;6.50;96.60
26541;DHT22;14206;50.202;10.948;2024-02-28T00:29:36;6.50;96.60
26541;DHT22;14206;50.202;10.948;2024-02-28T00:32:03;6.50;96.60
26541;DHT22;14206;50.202;10.948;2024-02-28T00:34:30;6.50;96.60
26541;DHT22;14206;50.202;10.948;2024-02-28T00:36:57;6.60;96.60
26541;DHT22;14206;50.202;10.948;2024-02-28T00:39:24;6.50;96.60
26541;DHT22;14206;50.202;10.948;2024-02-28T00:41:51;6.50;96.60
26541;DHT22;14206;50.202;10.948;2024-02-28T00:44:18;6.50;96.60
26541;DHT22;14206;50.202;10.948;2024-02-28T00:46:45;6.50;96.60
26541;DHT22;14206;50.202;10.948;2024-02-28T00:49:12;6.40;96.60
26541;DHT22;14206;50.202;10.948;2024-02-28T00:51:40;6.40;96.60
26541;DHT22;14206;50.202;10.948;2024-02-28T00:54:06;6.40;96.60
26541;DHT22;14206;50.202;10.948;2024-02-28T00:56:34;6.40;96.60
26541;DHT22;14206;50.202;10.948;2024-02-28T00:59:01;6.40;96.60
26541;DHT22;14206;50.202;10.948;2024-02-28T01:01:28;6.30;96.60
26541;DHT22;14206;50.202;10.948;2024-02-28T01:03:56;6.40;96.60
26541;DHT22;14206;50.202;10.948;2024-02-28T01:06:23;6.40;96.60
26541;DHT22;14206;50.202;10.948;2024-02-28T01:08:50;6.40;96.60
26541;DHT22;14206;50.202;10.948;2024-02-28T01:11:17;6.40;96.60
26541;DHT22;14206;50.202;10.948;2024-02-28T01:13:44;6.40;96.60
26541;DHT22;14206;50.202;10.948;2024-02-28T01:16:11;6.40;96.60
26541;DHT22;14206;50.202;10.948;2024-02-28T01:18:38;6.40;96.60
26541;DHT22;14206;50.202;10.948;2024-02-28T01:21:05;6.40;96.60
26541;DHT22;14206;50.202;10.948;2024-02-28T01:23:31;6.40;96.60
26541;DHT22;14206;50.202;10.948;2024-02-28T01:25:58;6.40;96.60
26541;DHT22;14206;50.202;10.948;2024-02-28T01:28:25;6.40;96.60
26541;DHT22;14206;50.202;10.948;2024-02-28T01:30:52;6.40;96.60
26541;DHT22;14206;50.202;10.948;2024-02-28T01:33:19;6.40;96.60
26541;DHT22;14206;50.202;10.948;2024-02-28T01:35:46;6.40;96.60
26541;DHT22;14206;50.202;10.948;2024-02-28T01:38:13;6.40;96.60
26541;DHT22;14206;50.202;10.948;2024-02-28T01:40:47;6.40;96.60
26541;DHT22;14206;50.202;10.948;2024-02-28T01:43:14;6.40;96.60
26541;DHT22;14206;50.202;10.948;2024-02-28T01:45:41;6.40;96.60
26541;DHT22;14206;50.202;10.948;2024-02-28T01:48:10;6.40;96.60
26541;DHT22;14206;50.202;10.948;2024-02-28T01:50:38;6.30;96.60
26541;DHT22;14206;50.202;10.948;2024-02-28T01:53:06;6.30;96.60
26541;DHT22;14206;50.202;10.948;2024-02-28T01:55:35;6.30;96.60
26541;DHT22;14206;50.202;10.948;2024-02-28T01:58:03;6.30;96.60
26541;DHT22;14206;50.202;10.948;2024-02-28T02:00:34;6.20;96.60
26541;DHT22;14206;50.202;10.948;2024-02-28T02:03:03;6.20;96.60
26541;DHT22;14206;50.202;10.948;2024-02-28T02:05:30;6.20;96.60
26541;DHT22;14206;50.202;10.948;2024-02-28T02:07:57;6.20;96.60
26541;DHT22;14206;50.202;10.948;2024-02-28T02:10:25;6.20;96.60
26541;DHT22;14206;50.202;10.948;2024-02-28T02:12:52;6.20;96.60
26541;DHT22;14206;50.202;10.948;2024-02-28T02:15:19;6.30;96.60
26541;DHT22;14206;50.202;10.948;2024-02-28T02:17:46;6.30;96.60
26541;DHT22;14206;50.202;10.948;2024-02-28T02:20:14;6.30;96.60
26541;DHT22;14206;50.202;10.948;2024-02-28T02:22:42;6.30;96.60
26541;DHT22;14206;50.202;10.948;2024-02-28T02:25:09;6.30;96.60
26541;DHT22;14206;50.202;10.948;2024-02-28T02:27:36;6.20;96.60
26541;DHT22;14206;50.202;10.948;2024-02-28T02:30:03;6.20;96.60
26541;DHT22;14206;50.202;10.948;2024-02-28T02:32:30;6.20;96.60
26541;DHT22;14206;50.202;10.948;2024-02-28T02:34:57;6.20;96.60
26541;DHT22;14206;50.202;10.948;2024-02-28T02:37:24;6.20;96.60
26541;DHT22;14206;50.202;10.948;2024-02-28T02:39:51;6.20;96.60
26541;DHT22;14206;50.202;10.948;2024-02-28T02:42:19;6.30;96.60
26541;DHT22;14206;50.202;10.948;2024-02-28T02:44:46;6.30;96.60
26541;DHT22;14206;50.202;10.948;2024-02-28T02:47:12;6.20;96.60
26541;DHT22;14206;50.202;10.948;2024-02-28T02:49:39;6.20;96.60
26541;DHT22;14206;50.202;10.948;2024-02-28T02:52:06;6.20;96.60
26541;DHT22;14206;50.202;10.948;2024-02-28T02:54:33;6.20;96.60
26541;DHT22;14206;50.202;10.948;2024-02-28T02:57:00;6.20;96.60
26541;DHT22;14206;50.202;10.948;2024-02-28T02:59:27;6.20;96.60
26541;DHT22;14206;50.202;10.948;2024-02-28T03:01:53;6.20;96.60
26541;DHT22;14206;50.202;10.948;2024-02-28T03:04:20;6.20;96.60
26541;DHT22;14206;50.202;10.948;2024-02-28T03:06:47;6.30;96.60
26541;DHT22;14206;50.202;10.948;2024-02-28T03:09:14;6.20;96.60
26541;DHT22;14206;50.202;10.948;2024-02-28T03:11:41;6.30;96.60
26541;DHT22;14206;50.202;10.948;2024-02-28T03:14:08;6.30;96.60
26541;DHT22;14206;50.202;10.948;2024-02-28T03:16:35;6.40;96.60
26541;DHT22;14206;50.202;10.948;2024-02-28T03:19:04;6.40;96.60
26541;DHT22;14206;50.202;10.948;2024-02-28T03:21:31;6.40;96.60
26541;DHT22;14206;50.202;10.948;2024-02-28T03:23:58;6.50;96.60
26541;DHT22;14206;50.202;10.948;2024-02-28T03:26:25;6.50;96.60
26541;DHT22;14206;50.202;10.948;2024-02-28T03:28:52;6.60;96.60
26541;DHT22;14206;50.202;10.948;2024-02-28T03:31:19;6.60;96.60
26541;DHT22;14206;50.202;10.948;2024-02-28T03:33:46;6.60;96.60
26541;DHT22;14206;50.202;10.948;2024-02-28T03:36:13;6.60;96.60
26541;DHT22;14206;50.202;10.948;2024-02-28T03:38:40;6.50;96.60
26541;DHT22;14206;50.202;10.948;2024-02-28T03:41:07;6.50;96.60
26541;DHT22;14206;50.202;10.948;2024-02-28T03:43:34;6.60;96.60
26541;DHT22;14206;50.202;10.948;2024-02-28T03:46:01;6.60;96.60
26541;DHT22;14206;50.202;10.948;2024-02-28T03:48:28;6.70;96.60
26541;DHT22;14206;50.202;10.948;2024-02-28T03:50:55;6.70;96.60
26541;DHT22;14206;50.202;10.948;2024-02-28T03:53:22;6.60;96.60
26541;DHT22;14206;50.202;10.948;2024-02-28T03:55:50;6.50;96.60
26541;DHT22;14206;50.202;10.948;2024-02-28T03:58:17;6.60;96.60
26541;DHT22;14206;50.202;10.948;2024-02-28T04:00:44;6.50;96.60
26541;DHT22;14206;50.202;10.948;2024-02-28T04:03:14;6.50;96.60
26541;DHT22;14206;50.202;10.948;2024-02-28T04:05:41;6.60;96.60
26541;DHT22;14206;50.202;10.948;2024-02-28T04:08:08;6.60;96.60
26541;DHT22;14206;50.202;10.948;2024-02-28T04:10:35;6.60;96.60
26541;DHT22;14206;50.202;10.948;2024-02-28T04:13:02;6.60;96.60
26541;DHT22;14206;50.202;10.948;2024-02-28T04:15:30;6.70;96.60
26541;DHT22;14206;50.202;10.948;2024-02-28T04:17:57;6.70;96.60
26541;DHT22;14206;50.202;10.948;2024-02-28T04:20:24;6.70;96.60
26541;DHT22;14206;50.202;10.948;2024-02-28T04:22:51;6.70;96.60
26541;DHT22;14206;50.202;10.948;2024-02-28T04:25:18;6.80;96.60
26541;DHT22;14206;50.202;10.948;2024-02-28T04:27:45;6.80;96.60
26541;DHT22;14206;50.202;10.948;2024-02-28T04:30:14;6.80;96.60
26541;DHT22;14206;50.202;10.948;2024-02-28T04:32:41;6.80;96.60
26541;DHT22;14206;50.202;10.948;2024-02-28T04:35:08;6.70;96.60
26541;DHT22;14206;50.202;10.948;2024-02-28T04:37:35;6.70;96.60
26541;DHT22;14206;50.202;10.948;2024-02-28T04:40:03;6.70;96.60
26541;DHT22;14206;50.202;10.948;2024-02-28T04:42:31;6.70;96.60
26541;DHT22;14206;50.202;10.948;2024-02-28T04:44:57;6.70;96.60
26541;DHT22;14206;50.202;10.948;2024-02-28T04:47:24;6.80;96.60
26541;DHT22;14206;50.202;10.948;2024-02-28T04:50:02;6.80;96.60
26541;DHT22;14206;50.202;10.948;2024-02-28T04:52:33;6.70;96.60
26541;DHT22;14206;50.202;10.948;2024-02-28T04:55:00;6.60;96.60
26541;DHT22;14206;50.202;10.948;2024-02-28T04:57:28;6.50;96.60
26541;DHT22;14206;50.202;10.948;2024-02-28T04:59:55;6.50;96.60
26541;DHT22;14206;50.202;10.948;2024-02-28T05:02:22;6.50;96.60
26541;DHT22;14206;50.202;10.948;2024-02-28T05:04:49;6.50;96.60
26541;DHT22;14206;50.202;10.948;2024-02-28T05:07:17;6.50;96.60
26541;DHT22;14206;50.202;10.948;2024-02-28T05:09:44;6.60;96.60
26541;DHT22;14206;50.202;10.948;2024-02-28T05:12:10;6.60;96.60
26541;DHT22;14206;50.202;10.948;2024-02-28T05:14:40;6.60;96.60
26541;DHT22;14206;50.202;10.948;2024-02-28T05:17:07;6.60;96.60
26541;DHT22;14206;50.202;10.948;2024-02-28T05:19:34;6.60;96.60
26541;DHT22;14206;50.202;10.948;2024-02-28T05:22:01;6.60;96.60
26541;DHT22;14206;50.202;10.948;2024-02-28T05:24:28;6.70;96.60
26541;DHT22;14206;50.202;10.948;2024-02-28T05:26:55;6.70;96.60
26541;DHT22;14206;50.202;10.948;2024-02-28T05:29:22;6.70;96.60
26541;DHT22;14206;50.202;10.948;2024-02-28T05:31:49;6.70;96.60
26541;DHT22;14206;50.202;10.948;2024-02-28T05:34:17;6.70;96.60
26541;DHT22;14206;50.202;10.948;2024-02-28T05:36:44;6.70;96.60
26541;DHT22;14206;50.202;10.948;2024-02-28T05:39:11;6.70;96.60
26541;DHT22;14206;50.202;10.948;2024-02-28T05:41:38;6.70;96.60
26541;DHT22;14206;50.202;10.948;2024-02-28T05:44:05;6.70;96.60
26541;DHT22;14206;50.202;10.948;2024-02-28T05:46:32;6.70;96.60
26541;DHT22;14206;50.202;10.948;2024-02-28T05:48:58;6.70;96.60
26541;DHT22;14206;50.202;10.948;2024-02-28T05:51:26;6.70;96.60
26541;DHT22;14206;50.202;10.948;2024-02-28T05:53:53;6.70;96.60
26541;DHT22;14206;50.202;10.948;2024-02-28T05:56:19;6.70;96.60
26541;DHT22;14206;50.202;10.948;2024-02-28T05:58:48;6.70;96.60
26541;DHT22;14206;50.202;10.948;2024-02-28T06:01:15;6.60;96.60
26541;DHT22;14206;50.202;10.948;2024-02-28T06:03:50;6.60;96.60
26541;DHT22;14206;50.202;10.948;2024-02-28T06:06:17;6.70;96.60
26541;DHT22;14206;50.202;10.948;2024-02-28T06:08:45;6.70;96.60
26541;DHT22;14206;50.202;10.948;2024-02-28T06:11:12;6.60;96.60
26541;DHT22;14206;50.202;10.948;2024-02-28T06:13:42;6.60;96.60
26541;DHT22;14206;50.202;10.948;2024-02-28T06:16:15;6.60;96.60
26541;DHT22;14206;50.202;10.948;2024-02-28T06:18:42;6.70;96.60
26541;DHT22;14206;50.202;10.948;2024-02-28T06:21:09;6.70;96.60
26541;DHT22;14206;50.202;10.948;2024-02-28T06:23:36;6.60;96.60
26541;DHT22;14206;50.202;10.948;2024-02-28T06:26:03;6.60;96.60
26541;DHT22;14206;50.202;10.948;2024-02-28T06:28:30;6.60;96.60
26541;DHT22;14206;50.202;10.948;2024-02-28T06:30:58;6.60;96.50
26541;DHT22;14206;50.202;10.948;2024-02-28T06:33:25;6.60;96.60
26541;DHT22;14206;50.202;10.948;2024-02-28T06:35:52;6.60;96.60
26541;DHT22;14206;50.202;10.948;2024-02-28T06:38:19;6.60;96.60
26541;DHT22;14206;50.202;10.948;2024-02-28T06:40:46;6.70;96.60
26541;DHT22;14206;50.202;10.948;2024-02-28T06:43:13;6.70;96.60
26541;DHT22;14206;50.202;10.948;2024-02-28T06:45:39;6.70;96.60
26541;DHT22;14206;50.202;10.948;2024-02-28T06:48:07;6.60;96.60
26541;DHT22;14206;50.202;10.948;2024-02-28T06:50:34;6.60;96.60
26541;DHT22;14206;50.202;10.948;2024-02-28T06:53:01;6.70;96.60
26541;DHT22;14206;50.202;10.948;2024-02-28T06:55:28;6.80;96.60
26541;DHT22;14206;50.202;10.948;2024-02-28T06:57:54;6.80;96.60
26541;DHT22;14206;50.202;10.948;2024-02-28T07:00:23;6.90;96.60
26541;DHT22;14206;50.202;10.948;2024-02-28T07:02:51;6.90;96.60
26541;DHT22;14206;50.202;10.948;2024-02-28T07:05:18;7.00;96.60
26541;DHT22;14206;50.202;10.948;2024-02-28T07:07:45;7.00;96.40
26541;DHT22;14206;50.202;10.948;2024-02-28T07:10:12;7.00;95.90
26541;DHT22;14206;50.202;10.948;2024-02-28T07:12:39;7.00;95.90
26541;DHT22;14206;50.202;10.948;2024-02-28T07:15:06;7.00;95.70
26541;DHT22;14206;50.202;10.948;2024-02-28T07:17:33;6.90;95.40
26541;DHT22;14206;50.202;10.948;2024-02-28T07:20:00;6.90;95.60
26541;DHT22;14206;50.202;10.948;2024-02-28T07:22:26;6.90;96.20
26541;DHT22;14206;50.202;10.948;2024-02-28T07:24:53;6.90;96.20
26541;DHT22;14206;50.202;10.948;2024-02-28T07:27:22;6.90;96.40
26541;DHT22;14206;50.202;10.948;2024-02-28T07:29:50;6.90;96.60
26541;DHT22;14206;50.202;10.948;2024-02-28T07:32:17;6.90;96.30
26541;DHT22;14206;50.202;10.948;2024-02-28T07:34:44;6.80;96.30
26541;DHT22;14206;50.202;10.948;2024-02-28T07:37:10;6.90;96.10
26541;DHT22;14206;50.202;10.948;2024-02-28T07:39:38;6.90;96.20
26541;DHT22;14206;50.202;10.948;2024-02-28T07:42:05;7.10;96.20
26541;DHT22;14206;50.202;10.948;2024-02-28T07:44:32;7.20;95.50
26541;DHT22;14206;50.202;10.948;2024-02-28T07:46:59;7.40;94.60
26541;DHT22;14206;50.202;10.948;2024-02-28T07:49:26;7.70;94.60
26541;DHT22;14206;50.202;10.948;2024-02-28T07:51:54;8.50;92.00
26541;DHT22;14206;50.202;10.948;2024-02-28T07:54:22;9.30;89.70
26541;DHT22;14206;50.202;10.948;2024-02-28T07:56:49;10.20;87.50
26541;DHT22;14206;50.202;10.948;2024-02-28T07:59:15;11.10;84.40
26541;DHT22;14206;50.202;10.948;2024-02-28T08:01:42;12.00;82.60
26541;DHT22;14206;50.202;10.948;2024-02-28T08:04:10;12.80;80.60
26541;DHT22;14206;50.202;10.948;2024-02-28T08:06:40;13.50;78.80
26541;DHT22;14206;50.202;10.948;2024-02-28T08:09:08;14.10;76.00
26541;DHT22;14206;50.202;10.948;2024-02-28T08:11:39;14.60;76.20
26541;DHT22;14206;50.202;10.948;2024-02-28T08:14:06;15.20;73.80
26541;DHT22;14206;50.202;10.948;2024-02-28T08:16:33;15.60;72.70
26541;DHT22;14206;50.202;10.948;2024-02-28T08:19:00;15.80;71.10
26541;DHT22;14206;50.202;10.948;2024-02-28T08:21:27;15.70;69.30
26541;DHT22;14206;50.202;10.948;2024-02-28T08:23:54;15.40;69.90
26541;DHT22;14206;50.202;10.948;2024-02-28T08:26:21;14.90;70.00
26541;DHT22;14206;50.202;10.948;2024-02-28T08:28:48;14.40;70.20
26541;DHT22;14206;50.202;10.948;2024-02-28T08:31:15;13.90;72.60
26541;DHT22;14206;50.202;10.948;2024-02-28T08:33:42;13.40;73.30
26541;DHT22;14206;50.202;10.948;2024-02-28T08:36:09;13.00;74.60
26541;DHT22;14206;50.202;10.948;2024-02-28T08:38:36;12.80;74.50
26541;DHT22;14206;50.202;10.948;2024-02-28T08:41:05;12.50;75.30
26541;DHT22;14206;50.202;10.948;2024-02-28T08:43:40;12.50;76.90
26541;DHT22;14206;50.202;10.948;2024-02-28T08:46:07;12.50;75.90
26541;DHT22;14206;50.202;10.948;2024-02-28T08:48:34;12.50;76.80
26541;DHT22;14206;50.202;10.948;2024-02-28T08:51:01;12.50;77.50
26541;DHT22;14206;50.202;10.948;2024-02-28T08:53:28;12.60;76.30
26541;DHT22;14206;50.202;10.948;2024-02-28T08:55:55;12.80;77.20
26541;DHT22;14206;50.202;10.948;2024-02-28T08:58:22;13.20;76.30
26541;DHT22;14206;50.202;10.948;2024-02-28T09:00:49;13.60;75.60
26541;DHT22;14206;50.202;10.948;2024-02-28T09:03:16;13.70;75.20
26541;DHT22;14206;50.202;10.948;2024-02-28T09:05:43;13.90;74.60
26541;DHT22;14206;50.202;10.948;2024-02-28T09:08:10;14.00;73.90
26541;DHT22;14206;50.202;10.948;2024-02-28T09:10:40;14.00;74.00
26541;DHT22;14206;50.202;10.948;2024-02-28T09:13:07;14.00;73.10
26541;DHT22;14206;50.202;10.948;2024-02-28T09:15:34;14.00;73.00
26541;DHT22;14206;50.202;10.948;2024-02-28T09:18:01;14.10;72.80
26541;DHT22;14206;50.202;10.948;2024-02-28T09:20:28;14.20;71.00
26541;DHT22;14206;50.202;10.948;2024-02-28T09:22:55;14.20;72.60
26541;DHT22;14206;50.202;10.948;2024-02-28T09:25:21;14.20;73.10
26541;DHT22;14206;50.202;10.948;2024-02-28T09:27:52;14.00;71.80
26541;DHT22;14206;50.202;10.948;2024-02-28T09:30:18;13.80;73.40
26541;DHT22;14206;50.202;10.948;2024-02-28T09:32:45;13.90;74.20
26541;DHT22;14206;50.202;10.948;2024-02-28T09:35:14;14.30;74.00
26541;DHT22;14206;50.202;10.948;2024-02-28T09:37:40;14.60;71.10
26541;DHT22;14206;50.202;10.948;2024-02-28T09:40:11;15.00;72.20
26541;DHT22;14206;50.202;10.948;2024-02-28T09:42:38;15.30;69.70
26541;DHT22;14206;50.202;10.948;2024-02-28T09:45:08;15.60;70.00
26541;DHT22;14206;50.202;10.948;2024-02-28T09:47:36;15.80;69.30
26541;DHT22;14206;50.202;10.948;2024-02-28T09:50:04;15.90;68.40
26541;DHT22;14206;50.202;10.948;2024-02-28T09:52:31;15.90;68.80
26541;DHT22;14206;50.202;10.948;2024-02-28T09:54:58;15.90;69.70
26541;DHT22;14206;50.202;10.948;2024-02-28T09:57:25;15.90;68.00
26541;DHT22;14206;50.202;10.948;2024-02-28T09:59:59;15.80;66.40
26541;DHT22;14206;50.202;10.948;2024-02-28T10:02:28;15.50;66.60
26541;DHT22;14206;50.202;10.948;2024-02-28T10:04:56;15.40;69.80
26541;DHT22;14206;50.202;10.948;2024-02-28T10:07:24;15.50;69.50
26541;DHT22;14206;50.202;10.948;2024-02-28T10:09:51;15.90;68.20
26541;DHT22;14206;50.202;10.948;2024-02-28T10:12:18;16.30;67.40
26541;DHT22;14206;50.202;10.948;2024-02-28T10:14:49;16.80;66.00
26541;DHT22;14206;50.202;10.948;2024-02-28T10:17:17;17.30;65.70
26541;DHT22;14206;50.202;10.948;2024-02-28T10:19:44;17.90;64.80
26541;DHT22;14206;50.202;10.948;2024-02-28T10:22:11;18.50;63.20
26541;DHT22;14206;50.202;10.948;2024-02-28T10:24:38;18.80;61.90
26541;DHT22;14206;50.202;10.948;2024-02-28T10:27:05;19.10;61.30
26541;DHT22;14206;50.202;10.948;2024-02-28T10:29:32;19.10;59.40
26541;DHT22;14206;50.202;10.948;2024-02-28T10:31:59;19.20;60.40
26541;DHT22;14206;50.202;10.948;2024-02-28T10:34:27;19.20;60.20
26541;DHT22;14206;50.202;10.948;2024-02-28T10:36:53;19.40;57.70
26541;DHT22;14206;50.202;10.948;2024-02-28T10:39:22;19.40;57.40
26541;DHT22;14206;50.202;10.948;2024-02-28T10:41:50;19.60;57.00
26541;DHT22;14206;50.202;10.948;2024-02-28T10:44:20;19.80;57.40
26541;DHT22;14206;50.202;10.948;2024-02-28T10:46:51;20.30;57.40
26541;DHT22;14206;50.202;10.948;2024-02-28T10:49:18;20.60;56.40
26541;DHT22;14206;50.202;10.948;2024-02-28T10:51:49;20.80;54.90
26541;DHT22;14206;50.202;10.948;2024-02-28T10:54:20;21.10;54.30
26541;DHT22;14206;50.202;10.948;2024-02-28T10:56:48;21.20;53.70
26541;DHT22;14206;50.202;10.948;2024-02-28T10:59:16;21.50;54.00
26541;DHT22;14206;50.202;10.948;2024-02-28T11:01:43;21.70;53.20
26541;DHT22;14206;50.202;10.948;2024-02-28T11:04:13;21.90;52.40
26541;DHT22;14206;50.202;10.948;2024-02-28T11:06:50;21.60;51.30
26541;DHT22;14206;50.202;10.948;2024-02-28T11:09:22;21.50;52.30
26541;DHT22;14206;50.202;10.948;2024-02-28T11:11:50;21.50;52.30
26541;DHT22;14206;50.202;10.948;2024-02-28T11:14:18;21.50;52.10
26541;DHT22;14206;50.202;10.948;2024-02-28T11:17:00;21.60;53.10
26541;DHT22;14206;50.202;10.948;2024-02-28T11:19:28;21.30;52.90
26541;DHT22;14206;50.202;10.948;2024-02-28T11:21:57;21.10;53.40
26541;DHT22;14206;50.202;10.948;2024-02-28T11:24:29;20.70;55.00
26541;DHT22;14206;50.202;10.948;2024-02-28T11:26:57;20.50;53.80
26541;DHT22;14206;50.202;10.948;2024-02-28T11:29:24;20.00;53.60
26541;DHT22;14206;50.202;10.948;2024-02-28T11:31:52;19.60;56.50
26541;DHT22;14206;50.202;10.948;2024-02-28T11:34:20;19.50;56.00
26541;DHT22;14206;50.202;10.948;2024-02-28T11:36:48;19.60;55.10
26541;DHT22;14206;50.202;10.948;2024-02-28T11:39:17;19.90;55.10
26541;DHT22;14206;50.202;10.948;2024-02-28T11:41:44;19.80;55.40
26541;DHT22;14206;50.202;10.948;2024-02-28T11:44:15;19.20;56.00
26541;DHT22;14206;50.202;10.948;2024-02-28T11:46:47;18.70;58.60
26541;DHT22;14206;50.202;10.948;2024-02-28T11:49:14;18.30;58.10
26541;DHT22;14206;50.202;10.948;2024-02-28T11:51:42;17.90;59.70
26541;DHT22;14206;50.202;10.948;2024-02-28T11:54:09;17.60;59.70
26541;DHT22;14206;50.202;10.948;2024-02-28T11:56:40;17.20;60.20
26541;DHT22;14206;50.202;10.948;2024-02-28T11:59:10;16.90;60.50
26541;DHT22;14206;50.202;10.948;2024-02-28T12:01:42;16.50;61.80
26541;DHT22;14206;50.202;10.948;2024-02-28T12:04:11;16.30;63.00
26541;DHT22;14206;50.202;10.948;2024-02-28T12:06:39;16.10;65.00
26541;DHT22;14206;50.202;10.948;2024-02-28T12:09:11;15.80;63.50
26541;DHT22;14206;50.202;10.948;2024-02-28T12:11:50;15.50;64.30
26541;DHT22;14206;50.202;10.948;2024-02-28T12:14:17;15.30;63.90
26541;DHT22;14206;50.202;10.948;2024-02-28T12:16:43;15.10;64.00
26541;DHT22;14206;50.202;10.948;2024-02-28T12:19:13;14.80;64.60
26541;DHT22;14206;50.202;10.948;2024-02-28T12:21:40;14.60;65.00
26541;DHT22;14206;50.202;10.948;2024-02-28T12:24:08;14.30;65.70
26541;DHT22;14206;50.202;10.948;2024-02-28T12:26:36;14.20;68.40
26541;DHT22;14206;50.202;10.948;2024-02-28T12:29:04;14.20;67.50
26541;DHT22;14206;50.202;10.948;2024-02-28T12:31:31;14.10;67.90
26541;DHT22;14206;50.202;10.948;2024-02-28T12:33:58;14.10;67.90
26541;DHT22;14206;50.202;10.948;2024-02-28T12:36:25;14.10;67.70
26541;DHT22;14206;50.202;10.948;2024-02-28T12:38:53;14.00;66.50
26541;DHT22;14206;50.202;10.948;2024-02-28T12:41:20;13.80;66.40
26541;DHT22;14206;50.202;10.948;2024-02-28T12:43:47;13.60;66.90
26541;DHT22;14206;50.202;10.948;2024-02-28T12:46:14;13.50;67.30
26541;DHT22;14206;50.202;10.948;2024-02-28T12:48:41;13.50;68.00
26541;DHT22;14206;50.202;10.948;2024-02-28T12:51:10;13.40;67.90
26541;DHT22;14206;50.202;10.948;2024-02-28T12:53:37;13.40;68.30
26541;DHT22;14206;50.202;10.948;2024-02-28T12:56:04;13.40;68.30
26541;DHT22;14206;50.202;10.948;2024-02-28T12:58:32;13.30;66.90
26541;DHT22;14206;50.202;10.948;2024-02-28T13:00:58;13.20;67.40
26541;DHT22;14206;50.202;10.948;2024-02-28T13:03:25;13.10;67.90
26541;DHT22;14206;50.202;10.948;2024-02-28T13:05:52;13.00;66.00
26541;DHT22;14206;50.202;10.948;2024-02-28T13:08:19;12.90;66.30
26541;DHT22;14206;50.202;10.948;2024-02-28T13:10:46;13.00;67.20
26541;DHT22;14206;50.202;10.948;2024-02-28T13:13:13;13.00;68.20
26541;DHT22;14206;50.202;10.948;2024-02-28T13:15:40;13.10;66.60
26541;DHT22;14206;50.202;10.948;2024-02-28T13:18:08;13.10;66.00
26541;DHT22;14206;50.202;10.948;2024-02-28T13:20:39;13.00;67.10
26541;DHT22;14206;50.202;10.948;2024-02-28T13:23:07;13.00;67.20
26541;DHT22;14206;50.202;10.948;2024-02-28T13:25:34;13.00;66.70
26541;DHT22;14206;50.202;10.948;2024-02-28T13:28:01;13.00;66.00
26541;DHT22;14206;50.202;10.948;2024-02-28T13:30:28;12.90;64.70
26541;DHT22;14206;50.202;10.948;2024-02-28T13:32:55;12.90;66.20
26541;DHT22;14206;50.202;10.948;2024-02-28T13:35:22;12.80;65.70
26541;DHT22;14206;50.202;10.948;2024-02-28T13:37:49;12.70;66.20
26541;DHT22;14206;50.202;10.948;2024-02-28T13:40:16;12.70;65.60
26541;DHT22;14206;50.202;10.948;2024-02-28T13:42:43;12.60;64.50
26541;DHT22;14206;50.202;10.948;2024-02-28T13:45:11;12.50;65.00
26541;DHT22;14206;50.202;10.948;2024-02-28T13:47:38;12.40;65.60
26541;DHT22;14206;50.202;10.948;2024-02-28T13:50:06;12.40;65.20
26541;DHT22;14206;50.202;10.948;2024-02-28T13:52:33;12.20;64.60
26541;DHT22;14206;50.202;10.948;2024-02-28T13:55:00;12.20;65.00
26541;DHT22;14206;50.202;10.948;2024-02-28T13:57:27;12.20;66.40
26541;DHT22;14206;50.202;10.948;2024-02-28T13:59:54;12.20;65.60
26541;DHT22;14206;50.202;10.948;2024-02-28T14:02:22;12.30;65.30
26541;DHT22;14206;50.202;10.948;2024-02-28T14:04:54;12.40;65.60
26541;DHT22;14206;50.202;10.948;2024-02-28T14:07:21;12.60;65.10
26541;DHT22;14206;50.202;10.948;2024-02-28T14:09:48;12.80;63.60
26541;DHT22;14206;50.202;10.948;2024-02-28T14:12:15;12.80;63.80
26541;DHT22;14206;50.202;10.948;2024-02-28T14:14:42;12.80;64.60
26541;DHT22;14206;50.202;10.948;2024-02-28T14:17:08;12.90;64.60
26541;DHT22;14206;50.202;10.948;2024-02-28T14:19:35;13.00;62.90
26541;DHT22;14206;50.202;10.948;2024-02-28T14:22:03;12.90;63.10
26541;DHT22;14206;50.202;10.948;2024-02-28T14:24:31;12.90;64.10
26541;DHT22;14206;50.202;10.948;2024-02-28T14:26:58;12.80;64.80
26541;DHT22;14206;50.202;10.948;2024-02-28T14:29:25;12.70;64.40
26541;DHT22;14206;50.202;10.948;2024-02-28T14:31:52;12.60;63.10
26541;DHT22;14206;50.202;10.948;2024-02-28T14:34:18;12.50;63.20
26541;DHT22;14206;50.202;10.948;2024-02-28T14:36:46;12.40;64.50
26541;DHT22;14206;50.202;10.948;2024-02-28T14:39:15;12.40;65.90
26541;DHT22;14206;50.202;10.948;2024-02-28T14:41:43;12.40;64.90
26541;DHT22;14206;50.202;10.948;2024-02-28T14:44:13;12.30;64.00
26541;DHT22;14206;50.202;10.948;2024-02-28T14:46:42;12.20;66.00
26541;DHT22;14206;50.202;10.948;2024-02-28T14:49:10;12.20;67.00
26541;DHT22;14206;50.202;10.948;2024-02-28T14:51:37;12.20;65.70
26541;DHT22;14206;50.202;10.948;2024-02-28T14:54:06;12.20;64.70
26541;DHT22;14206;50.202;10.948;2024-02-28T14:56:33;12.20;64.70
26541;DHT22;14206;50.202;10.948;2024-02-28T14:59:00;12.10;64.50
26541;DHT22;14206;50.202;10.948;2024-02-28T15:01:26;12.10;63.90
26541;DHT22;14206;50.202;10.948;2024-02-28T15:03:54;12.00;64.50
26541;DHT22;14206;50.202;10.948;2024-02-28T15:06:21;11.90;63.70
26541;DHT22;14206;50.202;10.948;2024-02-28T15:08:48;11.90;64.20
26541;DHT22;14206;50.202;10.948;2024-02-28T15:11:15;11.80;64.10
26541;DHT22;14206;50.202;10.948;2024-02-28T15:13:43;11.80;63.70
26541;DHT22;14206;50.202;10.948;2024-02-28T15:16:10;11.80;63.50
26541;DHT22;14206;50.202;10.948;2024-02-28T15:18:38;11.80;63.80
26541;DHT22;14206;50.202;10.948;2024-02-28T15:21:07;11.70;63.80
26541;DHT22;14206;50.202;10.948;2024-02-28T15:23:34;11.70;64.60